createdAt,value
2023-01-05T00:00:00.573Z,4.50
2023-01-05T00:01:00.550Z,4.40
2023-01-05T00:02:00.619Z,4.40
2023-01-05T00:03:00.545Z,4.90
2023-01-05T00:04:00.677Z,5.30
2023-01-05T00:05:00.538Z,4.60
2023-01-05T00:06:00.577Z,4.50
2023-01-05T00:07:00.533Z,4.80
2023-01-05T00:08:00.534Z,5.10
2023-01-05T00:09:00.550Z,5.40
2023-01-05T00:10:00.522Z,4.70
2023-01-05T00:11:00.524Z,4.80
2023-01-05T00:12:00.515Z,4.70
2023-01-05T00:13:00.512Z,4.60
2023-01-05T00:14:00.529Z,4.40
2023-01-05T00:15:00.526Z,4.70
2023-01-05T00:16:00.510Z,4.70
2023-01-05T00:17:00.541Z,4.70
2023-01-05T00:18:00.500Z,4.80
2023-01-05T00:19:00.500Z,5.20
2023-01-05T00:20:00.490Z,5.10
2023-01-05T00:21:00.492Z,5.20
2023-01-05T00:22:00.502Z,5.00
2023-01-05T00:23:00.485Z,4.90
2023-01-05T00:24:00.478Z,5.20
2023-01-05T00:25:02.250Z,5.40
2023-01-05T00:26:00.476Z,5.60
2023-01-05T00:27:00.474Z,4.90
2023-01-05T00:28:00.502Z,4.90
2023-01-05T00:29:00.461Z,5.00
2023-01-05T00:30:00.477Z,5.20
2023-01-05T00:31:00.457Z,5.40
2023-01-05T00:32:00.501Z,5.00
2023-01-05T00:33:00.450Z,5.30
2023-01-05T00:34:00.449Z,5.50
2023-01-05T00:35:00.466Z,5.20
2023-01-05T00:36:00.441Z,5.30
2023-01-05T00:37:00.444Z,4.90
2023-01-05T00:38:00.460Z,5.30
2023-01-05T00:39:00.434Z,5.40
2023-01-05T00:40:00.429Z,4.70
2023-01-05T00:41:00.429Z,4.90
2023-01-05T00:42:00.419Z,5.20
2023-01-05T00:43:00.425Z,5.30
2023-01-05T00:44:00.415Z,4.80
2023-01-05T00:45:00.422Z,5.40
2023-01-05T00:46:00.524Z,5.50
2023-01-05T00:47:00.406Z,5.00
2023-01-05T00:48:00.405Z,5.40
2023-01-05T00:49:00.408Z,4.90
2023-01-05T00:50:00.392Z,5.00
2023-01-05T00:51:00.397Z,5.10
2023-01-05T00:52:00.391Z,5.60
2023-01-05T00:53:00.387Z,5.00
2023-01-05T00:54:00.397Z,5.20
2023-01-05T00:55:00.388Z,5.20
2023-01-05T00:56:00.381Z,4.80
2023-01-05T00:57:00.372Z,5.00
2023-01-05T00:58:00.371Z,5.10
2023-01-05T00:59:00.373Z,5.10
2023-01-05T01:00:00.366Z,5.10
2023-01-05T01:01:00.498Z,5.20
2023-01-05T01:02:00.610Z,5.20
2023-01-05T01:03:00.488Z,4.80
2023-01-05T01:04:00.349Z,5.30
2023-01-05T01:05:00.359Z,5.00
2023-01-05T01:06:00.360Z,4.90
2023-01-05T01:07:00.345Z,5.10
2023-01-05T01:08:00.343Z,5.00
2023-01-05T01:09:00.346Z,5.20
2023-01-05T01:10:00.348Z,4.90
2023-01-05T01:11:00.330Z,5.30
2023-01-05T01:12:00.479Z,5.30
2023-01-05T01:13:00.324Z,5.60
2023-01-05T01:14:00.317Z,4.70
2023-01-05T01:15:00.318Z,5.10
2023-01-05T01:16:00.311Z,4.60
2023-01-05T01:17:00.470Z,5.00
2023-01-05T01:18:00.303Z,5.10
2023-01-05T01:19:04.989Z,5.10
2023-01-05T01:20:00.304Z,5.20
2023-01-05T01:21:00.302Z,5.00
2023-01-05T01:22:00.291Z,5.10
2023-01-05T01:23:00.290Z,5.30
2023-01-05T01:24:00.282Z,4.80
2023-01-05T01:25:00.291Z,5.40
2023-01-05T01:26:00.296Z,5.10
2023-01-05T01:27:00.291Z,5.00
2023-01-05T01:28:00.282Z,5.30
2023-01-05T01:29:00.285Z,5.00
2023-01-05T01:30:00.265Z,5.10
2023-01-05T01:31:00.317Z,5.50
2023-01-05T01:32:00.257Z,5.00
2023-01-05T01:33:00.260Z,4.90
2023-01-05T01:34:00.250Z,5.30
2023-01-05T01:35:00.256Z,5.10
2023-01-05T01:36:00.243Z,4.80
2023-01-05T01:37:00.251Z,5.30
2023-01-05T01:38:00.239Z,5.30
2023-01-05T01:39:00.238Z,5.50
2023-01-05T01:40:00.229Z,5.20
2023-01-05T01:41:00.233Z,4.90
2023-01-05T01:42:00.247Z,5.40
2023-01-05T01:43:00.239Z,4.80
2023-01-05T01:44:00.238Z,5.10
2023-01-05T01:45:00.223Z,5.20
2023-01-05T01:46:00.301Z,5.20
2023-01-05T01:47:00.215Z,5.40
2023-01-05T01:48:00.205Z,5.20
2023-01-05T01:49:00.203Z,5.30
2023-01-05T01:50:00.207Z,5.10
2023-01-05T01:51:07.728Z,4.60
2023-01-05T01:52:00.191Z,4.80
2023-01-05T01:53:00.190Z,5.00
2023-01-05T01:54:00.186Z,5.20
2023-01-05T01:55:00.194Z,4.70
2023-01-05T01:56:00.179Z,5.40
2023-01-05T01:57:00.183Z,5.10
2023-01-05T01:58:00.203Z,5.40
2023-01-05T01:59:00.171Z,5.10
2023-01-05T02:00:00.232Z,5.20
2023-01-05T02:01:00.289Z,5.70
2023-01-05T02:02:00.365Z,5.30
2023-01-05T02:03:00.156Z,5.20
2023-01-05T02:04:00.296Z,5.40
2023-01-05T02:05:00.154Z,4.80
2023-01-05T02:06:00.144Z,5.10
2023-01-05T02:07:00.148Z,5.60
2023-01-05T02:08:00.144Z,5.20
2023-01-05T02:09:00.139Z,5.60
2023-01-05T02:10:00.134Z,5.60
2023-01-05T02:11:00.132Z,5.30
2023-01-05T02:12:00.328Z,5.20
2023-01-05T02:13:00.125Z,5.30
2023-01-05T02:14:00.140Z,5.00
2023-01-05T02:15:00.136Z,5.30
2023-01-05T02:16:00.128Z,5.40
2023-01-05T02:17:00.170Z,5.30
2023-01-05T02:18:00.127Z,5.40
2023-01-05T02:19:00.117Z,5.30
2023-01-05T02:20:00.134Z,5.10
2023-01-05T02:21:00.153Z,5.20
2023-01-05T02:22:00.154Z,5.20
2023-01-05T02:23:00.110Z,5.20
2023-01-05T02:24:00.120Z,5.40
2023-01-05T02:25:00.095Z,5.20
2023-01-05T02:26:00.103Z,5.20
2023-01-05T02:27:00.112Z,5.30
2023-01-05T02:28:00.106Z,5.10
2023-01-05T02:29:00.127Z,5.20
2023-01-05T02:30:00.112Z,5.40
2023-01-05T02:31:00.161Z,5.60
2023-01-05T02:32:00.077Z,5.40
2023-01-05T02:33:00.096Z,6.00
2023-01-05T02:34:00.052Z,6.00
2023-01-05T02:35:00.051Z,5.30
2023-01-05T02:36:00.052Z,5.30
2023-01-05T02:37:00.049Z,5.70
2023-01-05T02:38:00.045Z,5.30
2023-01-05T02:39:00.044Z,5.30
2023-01-05T02:40:00.060Z,5.40
2023-01-05T02:41:00.035Z,5.50
2023-01-05T02:42:00.036Z,5.40
2023-01-05T02:43:00.033Z,5.00
2023-01-05T02:44:00.030Z,5.60
2023-01-05T02:45:00.018Z,5.30
2023-01-05T02:46:00.156Z,5.70
2023-01-05T02:47:00.016Z,5.10
2023-01-05T02:48:00.008Z,5.70
2023-01-05T02:49:00.010Z,5.80
2023-01-05T02:50:00.005Z,5.60
2023-01-05T02:51:00.003Z,5.20
2023-01-05T02:52:00.007Z,5.50
2023-01-05T02:53:00.005Z,5.90
2023-01-05T02:53:59.991Z,5.70
2023-01-05T02:54:59.987Z,5.40
2023-01-05T02:55:59.989Z,5.70
2023-01-05T02:56:59.978Z,5.30
2023-01-05T02:57:59.972Z,5.10
2023-01-05T02:58:59.973Z,5.80
2023-01-05T02:59:59.967Z,5.60
2023-01-05T03:01:00.049Z,5.40
2023-01-05T03:02:00.117Z,5.30
2023-01-05T03:03:00.085Z,5.30
2023-01-05T03:03:59.953Z,5.30
2023-01-05T03:04:59.966Z,5.70
2023-01-05T03:05:59.948Z,5.40
2023-01-05T03:06:59.962Z,5.30
2023-01-05T03:07:59.948Z,5.40
2023-01-05T03:08:59.939Z,5.70
2023-01-05T03:09:59.939Z,5.70
2023-01-05T03:10:59.936Z,5.60
2023-01-05T03:11:59.941Z,5.60
2023-01-05T03:13:00.128Z,5.20
2023-01-05T03:13:59.921Z,5.30
2023-01-05T03:14:59.924Z,5.60
2023-01-05T03:15:59.954Z,6.20
2023-01-05T03:16:59.912Z,6.00
2023-01-05T03:17:59.926Z,5.40
2023-01-05T03:18:59.918Z,5.60
2023-01-05T03:19:59.905Z,5.90
2023-01-05T03:20:59.898Z,5.60
2023-01-05T03:21:59.894Z,5.70
2023-01-05T03:22:59.898Z,5.30
2023-01-05T03:23:59.887Z,5.70
2023-01-05T03:24:59.888Z,6.10
2023-01-05T03:25:59.882Z,6.10
2023-01-05T03:26:59.880Z,5.80
2023-01-05T03:27:59.875Z,5.80
2023-01-05T03:28:59.879Z,6.00
2023-01-05T03:29:59.867Z,5.50
2023-01-05T03:30:59.896Z,5.20
2023-01-05T03:31:59.864Z,5.80
2023-01-05T03:32:59.864Z,5.40
2023-01-05T03:33:59.871Z,6.20
2023-01-05T03:34:59.854Z,5.90
2023-01-05T03:35:59.848Z,6.10
2023-01-05T03:36:59.849Z,5.30
2023-01-05T03:37:59.843Z,5.60
2023-01-05T03:38:59.844Z,5.80
2023-01-05T03:39:59.833Z,6.20
2023-01-05T03:40:59.830Z,5.30
2023-01-05T03:41:59.826Z,5.70
2023-01-05T03:42:59.822Z,5.80
2023-01-05T03:43:59.820Z,5.80
2023-01-05T03:44:59.815Z,5.60
2023-01-05T03:45:59.891Z,5.40
2023-01-05T03:46:59.821Z,5.60
2023-01-05T03:47:59.806Z,5.80
2023-01-05T03:48:59.807Z,6.00
2023-01-05T03:49:59.841Z,5.60
2023-01-05T03:50:59.798Z,5.50
2023-01-05T03:51:59.802Z,5.10
2023-01-05T03:52:59.790Z,5.90
2023-01-05T03:53:59.785Z,5.70
2023-01-05T03:54:59.781Z,6.00
2023-01-05T03:55:59.779Z,5.50
2023-01-05T03:56:59.776Z,5.90
2023-01-05T03:57:59.774Z,5.50
2023-01-05T03:58:59.767Z,5.80
2023-01-05T03:59:59.786Z,5.60
2023-01-05T04:00:59.761Z,5.40
2023-01-05T04:01:59.877Z,6.00
2023-01-05T04:02:59.878Z,5.10
2023-01-05T04:03:59.846Z,5.50
2023-01-05T04:04:59.749Z,5.60
2023-01-05T04:05:59.798Z,5.60
2023-01-05T04:06:59.742Z,5.90
2023-01-05T04:07:59.754Z,5.30
2023-01-05T04:08:59.734Z,5.90
2023-01-05T04:09:59.732Z,5.10
2023-01-05T04:10:59.727Z,5.60
2023-01-05T04:11:59.727Z,5.30
2023-01-05T04:12:59.736Z,5.30
2023-01-05T04:13:59.717Z,5.30
2023-01-05T04:14:59.719Z,5.60
2023-01-05T04:15:59.746Z,5.10
2023-01-05T04:16:59.713Z,5.50
2023-01-05T04:18:00.084Z,5.50
2023-01-05T04:18:59.702Z,5.40
2023-01-05T04:19:59.699Z,6.10
2023-01-05T04:20:59.695Z,5.30
2023-01-05T04:21:59.726Z,5.60
2023-01-05T04:22:59.686Z,5.20
2023-01-05T04:23:59.690Z,5.20
2023-01-05T04:24:59.709Z,5.20
2023-01-05T04:25:59.693Z,4.90
2023-01-05T04:26:59.680Z,5.50
2023-01-05T04:27:59.669Z,5.20
2023-01-05T04:28:59.668Z,5.40
2023-01-05T04:29:59.684Z,5.50
2023-01-05T04:30:59.697Z,5.90
2023-01-05T04:31:59.659Z,5.70
2023-01-05T04:32:59.653Z,5.60
2023-01-05T04:33:59.660Z,5.70
2023-01-05T04:35:01.745Z,5.80
2023-01-05T04:35:59.656Z,5.90
2023-01-05T04:36:59.638Z,5.70
2023-01-05T04:37:59.652Z,6.00
2023-01-05T04:38:59.635Z,6.00
2023-01-05T04:39:59.637Z,5.40
2023-01-05T04:40:59.631Z,5.60
2023-01-05T04:41:59.626Z,5.90
2023-01-05T04:42:59.624Z,6.20
2023-01-05T04:43:59.621Z,5.20
2023-01-05T04:44:59.618Z,5.80
2023-01-05T04:45:59.697Z,6.20
2023-01-05T04:46:59.607Z,6.00
2023-01-05T04:47:59.603Z,5.80
2023-01-05T04:48:59.604Z,5.90
2023-01-05T04:49:59.599Z,6.00
2023-01-05T04:50:59.591Z,6.20
2023-01-05T04:51:59.589Z,5.90
2023-01-05T04:52:59.584Z,5.80
2023-01-05T04:53:59.604Z,5.80
2023-01-05T04:54:59.584Z,6.40
2023-01-05T04:55:59.588Z,6.20
2023-01-05T04:56:59.573Z,5.20
2023-01-05T04:57:59.568Z,5.50
2023-01-05T04:58:59.565Z,5.60
2023-01-05T04:59:59.583Z,6.20
2023-01-05T05:00:59.557Z,6.10
2023-01-05T05:01:59.687Z,6.20
2023-01-05T05:02:59.609Z,6.00
2023-01-05T05:03:59.548Z,6.30
2023-01-05T05:04:59.548Z,5.90
2023-01-05T05:05:59.540Z,6.20
2023-01-05T05:06:59.537Z,6.20
2023-01-05T05:07:59.539Z,6.50
2023-01-05T05:08:59.555Z,6.20
2023-01-05T05:09:59.551Z,7.10
2023-01-05T05:10:59.527Z,6.40
2023-01-05T05:11:59.522Z,6.00
2023-01-05T05:12:59.521Z,6.40
2023-01-05T05:13:59.519Z,6.50
2023-01-05T05:14:59.511Z,6.80
2023-01-05T05:15:59.558Z,6.70
2023-01-05T05:16:59.503Z,7.20
2023-01-05T05:18:04.180Z,6.60
2023-01-05T05:18:59.496Z,6.60
2023-01-05T05:19:59.496Z,6.80
2023-01-05T05:20:59.497Z,7.40
2023-01-05T05:21:59.494Z,6.50
2023-01-05T05:22:59.494Z,6.60
2023-01-05T05:23:59.480Z,6.50
2023-01-05T05:24:59.482Z,6.80
2023-01-05T05:25:59.497Z,6.90
2023-01-05T05:26:59.470Z,7.10
2023-01-05T05:27:59.470Z,6.40
2023-01-05T05:28:59.461Z,7.10
2023-01-05T05:29:59.460Z,6.90
2023-01-05T05:30:59.543Z,6.90
2023-01-05T05:31:59.452Z,7.10
2023-01-05T05:32:59.451Z,6.80
2023-01-05T05:33:59.450Z,6.60
2023-01-05T05:34:59.445Z,6.50
2023-01-05T05:35:59.442Z,7.10
2023-01-05T05:36:59.440Z,6.70
2023-01-05T05:37:59.430Z,7.00
2023-01-05T05:38:59.436Z,7.40
2023-01-05T05:39:59.428Z,7.40
2023-01-05T05:40:59.426Z,6.60
2023-01-05T05:41:59.435Z,7.30
2023-01-05T05:42:59.419Z,7.30
2023-01-05T05:43:59.410Z,6.80
2023-01-05T05:44:59.413Z,7.20
2023-01-05T05:45:59.407Z,7.20
2023-01-05T05:46:59.474Z,7.10
2023-01-05T05:47:59.397Z,7.20
2023-01-05T05:48:59.397Z,7.10
2023-01-05T05:49:59.392Z,7.70
2023-01-05T05:50:59.382Z,7.50
2023-01-05T05:51:59.384Z,7.80
2023-01-05T05:52:59.380Z,6.90
2023-01-05T05:53:59.378Z,7.10
2023-01-05T05:54:59.373Z,7.50
2023-01-05T05:55:59.368Z,7.70
2023-01-05T05:56:59.377Z,7.50
2023-01-05T05:57:59.386Z,7.10
2023-01-05T05:59:01.823Z,7.70
2023-01-05T05:59:59.356Z,7.50
2023-01-05T06:00:59.349Z,7.70
2023-01-05T06:01:59.541Z,7.60
2023-01-05T06:02:59.511Z,6.80
2023-01-05T06:03:59.344Z,7.70
2023-01-05T06:04:59.342Z,7.60
2023-01-05T06:05:59.334Z,7.60
2023-01-05T06:06:59.336Z,7.80
2023-01-05T06:07:59.331Z,8.10
2023-01-05T06:08:59.325Z,7.40
2023-01-05T06:09:59.327Z,7.90
2023-01-05T06:10:59.320Z,8.20
2023-01-05T06:11:59.316Z,7.80
2023-01-05T06:12:59.315Z,8.00
2023-01-05T06:13:59.325Z,7.00
2023-01-05T06:14:59.303Z,7.20
2023-01-05T06:15:59.364Z,7.40
2023-01-05T06:16:59.303Z,7.50
2023-01-05T06:17:59.456Z,7.40
2023-01-05T06:18:59.314Z,7.70
2023-01-05T06:19:59.290Z,7.70
2023-01-05T06:21:01.736Z,7.70
2023-01-05T06:21:59.290Z,7.80
2023-01-05T06:22:59.318Z,8.20
2023-01-05T06:23:59.274Z,7.90
2023-01-05T06:24:59.269Z,8.60
2023-01-05T06:25:59.266Z,8.10
2023-01-05T06:26:59.263Z,8.20
2023-01-05T06:27:59.260Z,7.70
2023-01-05T06:28:59.252Z,7.60
2023-01-05T06:29:59.271Z,8.20
2023-01-05T06:30:59.250Z,8.50
2023-01-05T06:31:59.273Z,8.00
2023-01-05T06:32:59.247Z,8.00
2023-01-05T06:33:59.238Z,8.60
2023-01-05T06:34:59.254Z,8.60
2023-01-05T06:35:59.239Z,8.40
2023-01-05T06:37:02.257Z,7.80
2023-01-05T06:37:59.228Z,8.10
2023-01-05T06:38:59.219Z,8.10
2023-01-05T06:39:59.216Z,8.70
2023-01-05T06:40:59.214Z,8.30
2023-01-05T06:41:59.209Z,7.80
2023-01-05T06:42:59.207Z,8.10
2023-01-05T06:43:59.213Z,9.20
2023-01-05T06:44:59.200Z,8.80
2023-01-05T06:45:59.320Z,8.50
2023-01-05T06:46:59.189Z,8.60
2023-01-05T06:47:59.189Z,8.40
2023-01-05T06:48:59.208Z,8.60
2023-01-05T06:49:59.191Z,8.60
2023-01-05T06:50:59.183Z,8.50
2023-01-05T06:51:59.183Z,8.30
2023-01-05T06:52:59.188Z,8.40
2023-01-05T06:53:59.194Z,8.10
2023-01-05T06:54:59.163Z,8.40
2023-01-05T06:55:59.175Z,8.40
2023-01-05T06:56:59.155Z,8.40
2023-01-05T06:58:01.299Z,8.70
2023-01-05T06:58:59.152Z,8.00
2023-01-05T06:59:59.153Z,8.20
2023-01-05T07:00:59.175Z,8.40
2023-01-05T07:01:59.193Z,8.50
2023-01-05T07:02:59.148Z,8.40
2023-01-05T07:03:59.204Z,8.30
2023-01-05T07:04:59.132Z,7.70
2023-01-05T07:05:59.128Z,8.00
2023-01-05T07:06:59.124Z,7.80
2023-01-05T07:07:59.121Z,8.30
2023-01-05T07:08:59.115Z,8.30
2023-01-05T07:09:59.111Z,8.60
2023-01-05T07:10:59.111Z,8.10
2023-01-05T07:11:59.108Z,7.80
2023-01-05T07:12:59.099Z,8.40
2023-01-05T07:13:59.105Z,8.20
2023-01-05T07:14:59.098Z,8.60
2023-01-05T07:15:59.137Z,7.90
2023-01-05T07:16:59.085Z,8.00
2023-01-05T07:17:59.109Z,8.60
2023-01-05T07:18:59.085Z,7.90
2023-01-05T07:19:59.109Z,8.40
2023-01-05T07:20:59.084Z,8.40
2023-01-05T07:21:59.093Z,7.60
2023-01-05T07:22:59.073Z,7.70
2023-01-05T07:23:59.062Z,8.40
2023-01-05T07:24:59.071Z,8.00
2023-01-05T07:25:59.063Z,7.80
2023-01-05T07:27:00.924Z,8.20
2023-01-05T07:27:59.064Z,8.40
2023-01-05T07:28:59.048Z,8.30
2023-01-05T07:29:59.043Z,8.80
2023-01-05T07:30:59.040Z,8.40
2023-01-05T07:31:59.097Z,8.60
2023-01-05T07:32:59.035Z,8.20
2023-01-05T07:33:59.116Z,8.90
2023-01-05T07:34:59.023Z,8.70
2023-01-05T07:35:59.037Z,8.30
2023-01-05T07:36:59.076Z,8.40
2023-01-05T07:37:59.016Z,8.30
2023-01-05T07:38:59.688Z,8.40
2023-01-05T07:39:59.018Z,9.10
2023-01-05T07:40:59.009Z,9.00
2023-01-05T07:41:59.001Z,8.50
2023-01-05T07:42:58.997Z,8.40
2023-01-05T07:43:58.994Z,8.80
2023-01-05T07:44:58.992Z,9.20
2023-01-05T07:45:59.057Z,9.30
2023-01-05T07:46:58.984Z,8.90
2023-01-05T07:47:58.979Z,8.40
2023-01-05T07:48:58.980Z,8.70
2023-01-05T07:49:58.992Z,9.30
2023-01-05T07:50:58.968Z,9.20
2023-01-05T07:51:58.966Z,9.10
2023-01-05T07:52:58.968Z,8.90
2023-01-05T07:53:58.957Z,9.10
2023-01-05T07:54:58.957Z,9.10
2023-01-05T07:55:58.952Z,8.80
2023-01-05T07:56:58.950Z,9.70
2023-01-05T07:57:58.946Z,9.20
2023-01-05T07:58:58.953Z,9.00
2023-01-05T07:59:58.941Z,8.80
2023-01-05T08:00:59.009Z,9.20
2023-01-05T08:01:59.064Z,9.30
2023-01-05T08:02:58.927Z,9.00
2023-01-05T08:03:58.954Z,9.60
2023-01-05T08:04:58.921Z,9.10
2023-01-05T08:05:58.935Z,9.30
2023-01-05T08:06:58.929Z,9.10
2023-01-05T08:07:58.904Z,8.90
2023-01-05T08:08:58.912Z,8.60
2023-01-05T08:09:58.916Z,9.10
2023-01-05T08:10:58.899Z,9.00
2023-01-05T08:11:58.893Z,9.30
2023-01-05T08:12:58.896Z,8.80
2023-01-05T08:13:58.889Z,8.90
2023-01-05T08:14:58.890Z,9.10
2023-01-05T08:15:58.883Z,8.90
2023-01-05T08:16:58.930Z,9.70
2023-01-05T08:17:58.871Z,9.30
2023-01-05T08:18:59.254Z,8.90
2023-01-05T08:19:58.869Z,9.40
2023-01-05T08:20:58.890Z,8.80
2023-01-05T08:21:58.917Z,9.30
2023-01-05T08:22:58.858Z,9.30
2023-01-05T08:23:58.854Z,8.90
2023-01-05T08:24:58.856Z,9.30
2023-01-05T08:25:59.012Z,8.80
2023-01-05T08:26:58.948Z,9.50
2023-01-05T08:27:58.839Z,9.20
2023-01-05T08:28:58.847Z,8.90
2023-01-05T08:29:58.837Z,9.60
2023-01-05T08:30:58.830Z,9.50
2023-01-05T08:31:58.884Z,9.30
2023-01-05T08:32:58.822Z,9.30
2023-01-05T08:33:58.819Z,9.30
2023-01-05T08:34:58.816Z,9.70
2023-01-05T08:35:58.821Z,9.60
2023-01-05T08:36:58.809Z,9.20
2023-01-05T08:37:58.861Z,9.70
2023-01-05T08:38:58.803Z,9.70
2023-01-05T08:39:58.794Z,9.50
2023-01-05T08:40:58.800Z,9.40
2023-01-05T08:42:02.593Z,10.10
2023-01-05T08:42:58.791Z,9.60
2023-01-05T08:43:58.787Z,10.30
2023-01-05T08:44:58.778Z,9.30
2023-01-05T08:45:58.811Z,9.60
2023-01-05T08:46:58.778Z,10.00
2023-01-05T08:47:58.769Z,9.30
2023-01-05T08:48:58.771Z,9.60
2023-01-05T08:49:58.765Z,10.00
2023-01-05T08:50:58.759Z,10.20
2023-01-05T08:51:58.760Z,9.90
2023-01-05T08:52:58.753Z,9.30
2023-01-05T08:53:58.782Z,9.20
2023-01-05T08:54:58.751Z,9.40
2023-01-05T08:55:58.751Z,9.20
2023-01-05T08:56:58.743Z,10.10
2023-01-05T08:57:58.739Z,9.50
2023-01-05T08:58:58.741Z,8.90
2023-01-05T08:59:58.738Z,9.90
2023-01-05T09:00:58.748Z,9.90
2023-01-05T09:01:58.879Z,8.60
2023-01-05T09:02:58.863Z,10.00
2023-01-05T09:03:58.722Z,9.00
2023-01-05T09:04:58.717Z,10.00
2023-01-05T09:05:58.710Z,9.20
2023-01-05T09:06:58.703Z,9.60
2023-01-05T09:07:58.704Z,10.00
2023-01-05T09:08:58.697Z,8.90
2023-01-05T09:09:58.709Z,9.70
2023-01-05T09:10:58.692Z,9.80
2023-01-05T09:11:58.689Z,10.10
2023-01-05T09:12:58.689Z,9.10
2023-01-05T09:13:58.678Z,9.90
2023-01-05T09:14:58.679Z,10.10
2023-01-05T09:15:58.673Z,9.30
2023-01-05T09:17:07.668Z,9.20
2023-01-05T09:17:58.791Z,9.30
2023-01-05T09:18:58.673Z,8.90
2023-01-05T09:19:58.657Z,9.20
2023-01-05T09:20:58.670Z,9.30
2023-01-05T09:21:58.660Z,9.20
2023-01-05T09:22:58.655Z,8.70
2023-01-05T09:23:58.659Z,9.30
2023-01-05T09:24:58.644Z,9.30
2023-01-05T09:25:58.654Z,9.20
2023-01-05T09:26:58.638Z,9.30
2023-01-05T09:27:58.632Z,9.00
2023-01-05T09:28:58.633Z,8.90
2023-01-05T09:29:58.626Z,9.80
2023-01-05T09:30:58.669Z,9.20
2023-01-05T09:31:58.619Z,9.70
2023-01-05T09:32:58.618Z,8.90
2023-01-05T09:33:58.611Z,9.60
2023-01-05T09:34:58.611Z,9.00
2023-01-05T09:35:58.602Z,9.00
2023-01-05T09:36:58.600Z,9.40
2023-01-05T09:37:58.596Z,9.30
2023-01-05T09:38:58.601Z,9.10
2023-01-05T09:39:58.590Z,9.50
2023-01-05T09:40:58.588Z,8.60
2023-01-05T09:41:58.699Z,9.50
2023-01-05T09:42:58.582Z,8.80
2023-01-05T09:43:58.930Z,9.30
2023-01-05T09:44:59.240Z,9.10
2023-01-05T09:45:58.622Z,9.70
2023-01-05T09:46:58.582Z,8.70
2023-01-05T09:47:58.561Z,9.40
2023-01-05T09:48:58.562Z,8.90
2023-01-05T09:49:58.564Z,9.10
2023-01-05T09:50:58.570Z,8.90
2023-01-05T09:51:58.557Z,9.40
2023-01-05T09:52:58.554Z,8.90
2023-01-05T09:53:58.540Z,8.70
2023-01-05T09:54:58.539Z,8.70
2023-01-05T09:55:58.539Z,8.90
2023-01-05T09:57:09.240Z,8.20
2023-01-05T09:57:58.651Z,8.60
2023-01-05T09:58:58.525Z,8.80
2023-01-05T09:59:58.528Z,8.80
2023-01-05T10:00:58.523Z,8.70
2023-01-05T10:01:58.513Z,8.20
2023-01-05T10:02:58.572Z,7.70
2023-01-05T10:04:05.851Z,9.00
2023-01-05T10:04:58.618Z,8.90
2023-01-05T10:05:58.530Z,8.60
2023-01-05T10:06:58.502Z,9.20
2023-01-05T10:07:58.503Z,8.80
2023-01-05T10:08:58.494Z,8.90
2023-01-05T10:09:58.494Z,8.60
2023-01-05T10:10:58.493Z,8.40
2023-01-05T10:11:58.501Z,8.90
2023-01-05T10:12:58.480Z,8.40
2023-01-05T10:13:58.601Z,9.20
2023-01-05T10:14:58.475Z,8.50
2023-01-05T10:15:58.504Z,8.40
2023-01-05T10:17:30.643Z,9.00
2023-01-05T10:17:58.465Z,8.40
2023-01-05T10:18:58.462Z,8.80
2023-01-05T10:19:58.468Z,9.20
2023-01-05T10:20:58.472Z,8.40
2023-01-05T10:21:58.448Z,8.30
2023-01-05T10:22:58.460Z,9.00
2023-01-05T10:23:58.442Z,8.60
2023-01-05T10:24:58.439Z,8.50
2023-01-05T10:25:58.437Z,9.00
2023-01-05T10:27:24.150Z,7.90
2023-01-05T10:27:58.428Z,8.20
2023-01-05T10:28:58.428Z,8.40
2023-01-05T10:29:58.532Z,8.10
2023-01-05T10:30:58.522Z,8.00
2023-01-05T10:31:58.413Z,8.30
2023-01-05T10:33:22.034Z,8.70
2023-01-05T10:34:03.382Z,8.80
2023-01-05T10:34:58.409Z,8.50
2023-01-05T10:36:01.245Z,8.50
2023-01-05T10:37:13.893Z,9.10
2023-01-05T10:37:58.395Z,8.50
2023-01-05T10:38:58.401Z,8.80
2023-01-05T10:39:58.391Z,9.10
2023-01-05T10:40:58.384Z,8.90
2023-01-05T10:41:58.381Z,8.80
2023-01-05T10:42:58.386Z,8.90
2023-01-05T10:43:58.578Z,9.30
2023-01-05T10:44:58.372Z,8.70
2023-01-05T10:46:29.742Z,9.10
2023-01-05T10:46:58.445Z,8.10
2023-01-05T10:47:58.448Z,8.00
2023-01-05T10:48:58.368Z,8.50
2023-01-05T10:49:58.357Z,8.80
2023-01-05T10:50:58.359Z,8.00
2023-01-05T10:51:58.347Z,9.30
2023-01-05T10:52:58.349Z,8.50
2023-01-05T10:53:58.345Z,8.30
2023-01-05T10:54:58.348Z,8.90
2023-01-05T10:55:58.354Z,9.20
2023-01-05T10:56:58.341Z,9.10
2023-01-05T10:57:58.360Z,9.90
2023-01-05T10:58:58.340Z,10.10
2023-01-05T10:59:58.400Z,9.00
2023-01-05T11:00:58.318Z,9.20
2023-01-05T11:01:58.695Z,8.60
2023-01-05T11:02:58.360Z,9.20
2023-01-05T11:04:58.365Z,8.90
2023-01-05T11:05:58.304Z,9.20
2023-01-05T11:06:58.295Z,9.10
2023-01-05T11:07:58.298Z,9.20
2023-01-05T11:08:58.293Z,9.00
2023-01-05T11:09:58.296Z,9.60
2023-01-05T11:10:58.298Z,9.30
2023-01-05T11:11:58.320Z,9.20
2023-01-05T11:12:58.281Z,8.80
2023-01-05T11:13:58.272Z,9.10
2023-01-05T11:14:59.243Z,9.00
2023-01-05T11:15:58.329Z,8.80
2023-01-05T11:16:58.266Z,8.50
2023-01-05T11:17:58.404Z,8.80
2023-01-05T11:18:58.270Z,8.30
2023-01-05T11:19:58.266Z,8.20
2023-01-05T11:20:58.252Z,8.50
2023-01-05T11:22:02.127Z,8.70
2023-01-05T11:22:58.246Z,8.40
2023-01-05T11:23:58.248Z,8.30
2023-01-05T11:24:58.241Z,8.40
2023-01-05T11:25:58.233Z,8.20
2023-01-05T11:26:58.235Z,8.20
2023-01-05T11:28:05.033Z,8.20
2023-01-05T11:28:58.233Z,8.00
2023-01-05T11:29:58.221Z,8.30
2023-01-05T11:30:58.230Z,8.20
2023-01-05T11:31:58.224Z,8.50
2023-01-05T11:32:58.217Z,7.90
2023-01-05T11:33:58.231Z,9.10
2023-01-05T11:34:58.215Z,8.90
2023-01-05T11:35:58.202Z,8.60
2023-01-05T11:37:01.299Z,8.50
2023-01-05T11:37:58.234Z,9.20
2023-01-05T11:38:58.193Z,8.60
2023-01-05T11:39:58.195Z,8.30
2023-01-05T11:40:58.189Z,8.90
2023-01-05T11:41:58.187Z,8.80
2023-01-05T11:42:58.180Z,8.90
2023-01-05T11:43:58.377Z,8.60
2023-01-05T11:44:58.173Z,8.50
2023-01-05T11:45:58.224Z,8.50
2023-01-05T11:46:58.166Z,8.40
2023-01-05T11:47:58.170Z,8.50
2023-01-05T11:48:58.170Z,8.10
2023-01-05T11:49:58.724Z,8.30
2023-01-05T11:50:58.180Z,8.30
2023-01-05T11:51:58.151Z,8.40
2023-01-05T11:52:58.159Z,8.90
2023-01-05T11:53:58.143Z,8.50
2023-01-05T11:54:58.140Z,8.80
2023-01-05T11:55:58.144Z,8.10
2023-01-05T11:56:58.142Z,8.60
2023-01-05T11:58:00.385Z,8.80
2023-01-05T11:58:58.136Z,8.10
2023-01-05T11:59:58.122Z,8.20
2023-01-05T12:00:58.318Z,7.90
2023-01-05T12:01:58.281Z,8.40
2023-01-05T12:02:58.184Z,8.60
2023-01-05T12:03:58.966Z,8.10
2023-01-05T12:04:58.132Z,8.50
2023-01-05T12:05:58.221Z,7.70
2023-01-05T12:06:58.101Z,7.50
2023-01-05T12:07:58.097Z,7.90
2023-01-05T12:08:58.252Z,8.10
2023-01-05T12:09:58.089Z,7.70
2023-01-05T12:10:58.091Z,7.60
2023-01-05T12:11:58.085Z,7.60
2023-01-05T12:12:58.082Z,7.80
2023-01-05T12:13:58.078Z,8.10
2023-01-05T12:14:58.078Z,7.60
2023-01-05T12:16:02.051Z,8.00
2023-01-05T12:16:58.070Z,7.70
2023-01-05T12:17:58.070Z,7.90
2023-01-05T12:18:58.071Z,7.40
2023-01-05T12:19:58.082Z,7.70
2023-01-05T12:20:58.056Z,8.30
2023-01-05T12:22:02.416Z,7.50
2023-01-05T12:22:58.253Z,7.90
2023-01-05T12:23:58.051Z,7.80
2023-01-05T12:24:58.047Z,7.60
2023-01-05T12:25:58.046Z,7.20
2023-01-05T12:26:58.042Z,7.60
2023-01-05T12:28:03.310Z,7.40
2023-01-05T12:30:09.135Z,7.50
2023-01-05T12:34:03.300Z,7.60
2023-01-05T12:34:58.015Z,7.40
2023-01-05T12:35:58.018Z,7.10
2023-01-05T12:36:58.010Z,7.40
2023-01-05T12:37:58.119Z,7.20
2023-01-05T12:38:58.002Z,7.80
2023-01-05T12:39:57.998Z,7.30
2023-01-05T12:40:57.999Z,7.40
2023-01-05T12:41:57.999Z,7.30
2023-01-05T12:42:57.986Z,7.50
2023-01-05T12:43:57.989Z,7.40
2023-01-05T12:44:57.982Z,7.60
2023-01-05T12:45:57.993Z,7.40
2023-01-05T12:46:58.023Z,7.80
2023-01-05T12:47:57.979Z,8.00
2023-01-05T12:48:57.968Z,7.60
2023-01-05T12:49:57.968Z,8.40
2023-01-05T12:50:57.979Z,7.60
2023-01-05T12:52:02.567Z,7.50
2023-01-05T12:52:57.965Z,7.90
2023-01-05T12:53:58.090Z,7.70
2023-01-05T12:54:57.951Z,6.90
2023-01-05T12:55:57.953Z,7.20
2023-01-05T12:56:57.948Z,7.40
2023-01-05T12:57:57.941Z,7.40
2023-01-05T12:58:57.940Z,7.90
2023-01-05T12:59:57.968Z,7.30
2023-01-05T13:00:58.044Z,7.60
2023-01-05T13:01:58.054Z,7.30
2023-01-05T13:02:57.988Z,7.60
2023-01-05T13:03:57.934Z,7.60
2023-01-05T13:04:57.922Z,7.70
2023-01-05T13:05:57.917Z,7.20
2023-01-05T13:06:57.927Z,7.30
2023-01-05T13:07:57.915Z,7.50
2023-01-05T13:08:57.906Z,7.70
2023-01-05T13:10:02.366Z,7.60
2023-01-05T13:10:57.899Z,7.10
2023-01-05T13:11:57.911Z,6.80
2023-01-05T13:12:57.893Z,6.80
2023-01-05T13:13:57.892Z,7.20
2023-01-05T13:14:57.898Z,7.80
2023-01-05T13:15:57.948Z,7.20
2023-01-05T13:16:58.728Z,6.80
2023-01-05T13:17:57.887Z,7.50
2023-01-05T13:18:57.873Z,6.70
2023-01-05T13:19:57.873Z,7.20
2023-01-05T13:20:57.877Z,6.80
2023-01-05T13:21:57.866Z,7.30
2023-01-05T13:22:57.862Z,7.10